createdAt,value
2023-05-18T00:01:32.312Z,102811.34
2023-05-18T00:05:34.795Z,102815.81
2023-05-18T00:09:37.791Z,102816.13
2023-05-18T00:13:39.659Z,102820.88
2023-05-18T00:17:42.790Z,102826.97
2023-05-18T00:21:48.469Z,102814.63
2023-05-18T00:25:50.304Z,102819.31
2023-05-18T00:29:52.462Z,102822.25
2023-05-18T00:33:54.319Z,102820.53
2023-05-18T00:37:56.410Z,102819.03
2023-05-18T00:41:58.551Z,102815.84
2023-05-18T00:46:00.613Z,102817.19
2023-05-18T00:50:02.968Z,102818.78
2023-05-18T00:54:06.459Z,102819.66
2023-05-18T00:58:08.395Z,102811.56
2023-05-18T01:02:12.302Z,102815.38
2023-05-18T01:06:15.033Z,102821.75
2023-05-18T01:10:19.957Z,102817.50
2023-05-18T01:14:33.969Z,102822.50
2023-05-18T01:18:46.559Z,102828.56
2023-05-18T01:23:06.359Z,102827.91
2023-05-18T01:27:08.964Z,102824.53
2023-05-18T01:31:11.532Z,102821.09
2023-05-18T01:35:13.701Z,102823.94
2023-05-18T01:39:15.909Z,102823.09
2023-05-18T01:43:20.562Z,102817.03
2023-05-18T01:47:25.198Z,102817.03
2023-05-18T01:51:34.110Z,102822.34
2023-05-18T01:55:37.989Z,102824.06
2023-05-18T01:59:41.640Z,102833.00
2023-05-18T02:03:44.348Z,102827.69
2023-05-18T02:07:47.728Z,102829.56
2023-05-18T02:11:50.201Z,102825.97
2023-05-18T02:15:52.306Z,102833.00
2023-05-18T02:19:54.161Z,102827.88
2023-05-18T02:23:57.449Z,102827.88
2023-05-18T02:27:59.349Z,102829.75
2023-05-18T02:32:01.219Z,102829.75
2023-05-18T02:36:03.666Z,102831.69
2023-05-18T02:40:16.242Z,102831.88
2023-05-18T02:44:18.741Z,102829.97
2023-05-18T02:48:20.714Z,102822.09
2023-05-18T02:52:22.705Z,102821.22
2023-05-18T02:56:25.813Z,102822.28
2023-05-18T03:00:38.472Z,102822.38
2023-05-18T03:04:40.487Z,102822.56
2023-05-18T03:08:43.120Z,102818.22
2023-05-18T03:12:48.247Z,102820.22
2023-05-18T03:16:54.558Z,102822.22
2023-05-18T03:21:02.378Z,102823.25
2023-05-18T03:25:06.190Z,102827.72
2023-05-18T03:29:08.987Z,102826.03
2023-05-18T03:33:10.841Z,102821.84
2023-05-18T03:37:12.804Z,102828.03
2023-05-18T03:41:14.796Z,102822.22
2023-05-18T03:45:18.108Z,102821.66
2023-05-18T03:49:20.769Z,102832.69
2023-05-18T03:53:23.290Z,102832.69
2023-05-18T03:57:25.877Z,102835.53
2023-05-18T04:01:30.568Z,102838.09
2023-05-18T04:05:32.987Z,102832.69
2023-05-18T04:09:36.554Z,102829.84
2023-05-18T04:13:39.167Z,102828.69
2023-05-18T04:17:45.954Z,102832.31
2023-05-18T04:21:49.303Z,102843.69
2023-05-18T04:25:53.097Z,102839.13
2023-05-18T04:29:55.117Z,102837.03
2023-05-18T04:33:57.739Z,102842.53
2023-05-18T04:38:00.197Z,102836.56
2023-05-18T04:42:02.351Z,102843.59
2023-05-18T04:46:07.644Z,102852.50
2023-05-18T04:50:10.587Z,102853.41
2023-05-18T04:54:13.290Z,102862.03
2023-05-18T04:58:15.280Z,102870.66
2023-05-18T05:02:18.323Z,102860.97
2023-05-18T05:06:20.233Z,102864.41
2023-05-18T05:10:22.671Z,102863.25
2023-05-18T05:14:24.560Z,102864.78
2023-05-18T05:18:26.484Z,102867.97
2023-05-18T05:22:28.501Z,102860.47
2023-05-18T05:26:30.667Z,102872.56
2023-05-18T05:30:32.817Z,102879.38
2023-05-18T05:34:34.824Z,102864.94
2023-05-18T05:38:36.690Z,102870.91
2023-05-18T05:42:38.976Z,102867.19
2023-05-18T05:46:42.601Z,102865.47
2023-05-18T05:50:46.107Z,102867.75
2023-05-18T05:54:50.698Z,102879.91
2023-05-18T05:58:52.740Z,102874.81
2023-05-18T06:02:54.865Z,102875.09
2023-05-18T06:07:02.978Z,102879.91
2023-05-18T06:11:05.356Z,102886.66
2023-05-18T06:15:08.352Z,102891.28
2023-05-18T06:19:12.334Z,102897.66
2023-05-18T06:23:15.225Z,102897.22
2023-05-18T06:27:28.963Z,102905.78
2023-05-18T06:31:48.168Z,102900.97
2023-05-18T06:35:55.719Z,102914.00
2023-05-18T06:39:59.277Z,102906.19
2023-05-18T06:44:02.394Z,102902.41
2023-05-18T06:48:09.785Z,102913.47
2023-05-18T06:52:11.771Z,102915.94
2023-05-18T06:56:13.956Z,102911.13
2023-05-18T07:00:19.051Z,102914.16
2023-05-18T07:04:21.019Z,102909.03
2023-05-18T07:08:22.857Z,102911.63
2023-05-18T07:12:26.433Z,102913.75
2023-05-18T07:16:28.550Z,102920.50
2023-05-18T07:20:30.760Z,102907.34
2023-05-18T07:24:32.626Z,102919.84
2023-05-18T07:28:34.535Z,102922.06
2023-05-18T07:32:36.640Z,102917.16
2023-05-18T07:36:38.544Z,102924.00
2023-05-18T07:40:40.453Z,102935.94
2023-05-18T07:44:42.299Z,102928.47
2023-05-18T07:48:45.395Z,102929.00
2023-05-18T07:52:47.247Z,102934.34
2023-05-18T07:56:49.351Z,102932.97
2023-05-18T08:00:51.806Z,102939.34
2023-05-18T08:04:53.769Z,102928.34
2023-05-18T08:08:56.925Z,102933.41
2023-05-18T08:12:58.805Z,102917.47
2023-05-18T08:17:01.166Z,102929.94
2023-05-18T08:21:04.415Z,102929.69
2023-05-18T08:25:07.261Z,102919.44
2023-05-18T08:29:12.013Z,102925.28
2023-05-18T08:33:13.890Z,102928.03
2023-05-18T08:37:15.790Z,102924.94
2023-05-18T08:41:29.166Z,102925.34
2023-05-18T08:45:40.316Z,102925.25
2023-05-18T08:49:43.076Z,102925.88
2023-05-18T08:53:45.792Z,102914.88
2023-05-18T08:57:55.823Z,102921.25
2023-05-18T09:01:58.507Z,102915.56
2023-05-18T09:06:01.115Z,102919.22
2023-05-18T09:10:03.677Z,102910.13
2023-05-18T09:14:05.526Z,102905.94
2023-05-18T09:18:07.551Z,102898.00
2023-05-18T09:22:09.415Z,102896.75
2023-05-18T09:26:13.033Z,102885.09
2023-05-18T09:30:14.938Z,102882.81
2023-05-18T09:34:19.187Z,102874.91
2023-05-18T09:38:25.155Z,102880.28
2023-05-18T09:42:44.076Z,102883.44
2023-05-18T09:46:49.224Z,102894.88
2023-05-18T09:50:51.501Z,102893.63
2023-05-18T09:54:59.972Z,102884.66
2023-05-18T09:59:12.616Z,102886.09
2023-05-18T10:03:22.671Z,102882.09
2023-05-18T10:07:24.548Z,102884.94
2023-05-18T10:11:31.242Z,102888.09
2023-05-18T10:15:33.650Z,102883.50
2023-05-18T10:19:37.116Z,102882.91
